Time;durP1;ratioP1;P1;durP2;ratioP2;P2;SDS_P1;SDS_P2;PMS_P1;PMS_P2;Temp;Humidity;BMP_temperature;BMP_pressure;BME280_temperature;BME280_humidity;BME280_pressure;Samples;Min_cycle;Max_cycle;Signal;HPM_P1;HPM_P2
2023/01/13 00:00:17;;;;;;;13.98;2.47;;;11.00;99.90;;;;;;5038547;28;21171;-68
2023/01/13 00:02:43;;;;;;;10.88;2.08;;;11.00;99.90;;;;;;5038413;28;20029;-68
2023/01/13 00:05:09;;;;;;;11.13;1.85;;;11.00;99.90;;;;;;5036017;28;20100;-68
2023/01/13 00:07:35;;;;;;;12.25;2.28;;;10.90;99.90;;;;;;5036868;28;20601;-68
2023/01/13 00:10:00;;;;;;;10.13;2.30;;;10.80;99.90;;;;;;5038739;28;20061;-68
2023/01/13 00:12:26;;;;;;;12.65;2.55;;;10.80;99.90;;;;;;5041172;28;20461;-68
2023/01/13 00:14:51;;;;;;;20.13;3.13;;;10.80;99.90;;;;;;5042656;28;21205;-68
2023/01/13 00:17:17;;;;;;;15.85;2.03;;;10.80;99.90;;;;;;5042569;28;20033;-68
2023/01/13 00:19:43;;;;;;;12.10;2.80;;;10.80;99.90;;;;;;5042255;28;20013;-68
2023/01/13 00:22:09;;;;;;;12.05;2.60;;;10.70;99.90;;;;;;5039889;28;20025;-68
2023/01/13 00:24:35;;;;;;;9.40;1.60;;;10.70;99.90;;;;;;5040842;28;20025;-68
2023/01/13 00:27:00;;;;;;;11.50;2.45;;;10.80;99.90;;;;;;5040467;28;20075;-68
2023/01/13 00:29:26;;;;;;;18.88;2.42;;;10.70;99.90;;;;;;5044477;28;20016;-68
2023/01/13 00:31:51;;;;;;;16.70;2.40;;;10.70;99.90;;;;;;5044707;28;20041;-68
2023/01/13 00:34:18;;;;;;;15.00;1.92;;;10.70;99.90;;;;;;5045264;28;20040;-68
2023/01/13 00:36:43;;;;;;;14.27;2.28;;;10.70;99.90;;;;;;5046364;28;20056;-68
2023/01/13 00:39:09;;;;;;;13.02;2.80;;;10.50;99.90;;;;;;5040169;28;20059;-68
2023/01/13 00:44:19;;;;;;;22.88;3.35;;;10.60;99.90;;;;;;5040374;28;20131;-68
2023/01/13 00:46:45;;;;;;;28.40;3.45;;;10.50;99.90;;;;;;5044047;28;20440;-68
2023/01/13 00:49:12;;;;;;;15.50;2.90;;;10.50;99.90;;;;;;5044970;28;20029;-68
2023/01/13 00:51:37;;;;;;;15.57;2.97;;;10.40;99.90;;;;;;5043339;28;20025;-68
2023/01/13 00:54:03;;;;;;;14.82;3.03;;;10.40;99.90;;;;;;5043566;28;20486;-68
2023/01/13 00:56:28;;;;;;;16.88;2.83;;;10.40;99.90;;;;;;5038288;28;20051;-68
2023/01/13 00:58:57;;;;;;;15.45;2.80;;;10.30;99.90;;;;;;5042263;28;20036;-68
2023/01/13 01:01:23;;;;;;;19.75;3.83;;;10.30;99.90;;;;;;5040678;28;20109;-68
2023/01/13 01:03:50;;;;;;;22.00;3.35;;;10.30;99.90;;;;;;5040138;28;20029;-68
2023/01/13 01:06:19;;;;;;;19.08;2.75;;;10.30;99.90;;;;;;5042606;28;20072;-68
2023/01/13 01:08:45;;;;;;;12.73;3.10;;;10.30;99.90;;;;;;5042089;28;20030;-68
2023/01/13 01:11:23;;;;;;;19.55;2.80;;;10.20;99.90;;;;;;5040966;28;20033;-68
2023/01/13 01:13:51;;;;;;;24.90;3.33;;;10.20;99.90;;;;;;5044675;28;20484;-68
2023/01/13 01:16:18;;;;;;;22.58;3.28;;;10.20;99.90;;;;;;5039256;28;20029;-68
2023/01/13 01:18:46;;;;;;;22.73;3.15;;;10.10;99.90;;;;;;5041827;28;20017;-68
2023/01/13 01:21:13;;;;;;;18.42;3.35;;;10.20;99.90;;;;;;5040742;28;20028;-68
2023/01/13 01:23:39;;;;;;;16.67;3.30;;;10.10;99.90;;;;;;5042407;28;20021;-68
2023/01/13 01:26:11;;;;;;;15.60;3.58;;;10.10;99.90;;;;;;5041984;28;20419;-68
2023/01/13 01:28:37;;;;;;;18.10;3.10;;;10.10;99.90;;;;;;5043735;28;20110;-68
2023/01/13 01:31:08;;;;;;;26.35;4.22;;;10.10;99.90;;;;;;5044160;28;20159;-68
2023/01/13 01:33:34;;;;;;;16.13;3.70;;;10.00;99.90;;;;;;5045598;28;20146;-68
2023/01/13 01:36:00;;;;;;;15.38;3.35;;;10.00;99.90;;;;;;5043400;28;20592;-68
2023/01/13 01:38:26;;;;;;;17.88;3.95;;;9.90;99.90;;;;;;5045511;28;20468;-68
2023/01/13 01:40:51;;;;;;;25.63;4.28;;;9.90;99.90;;;;;;5044093;28;20040;-68
2023/01/13 01:43:59;;;;;;;29.33;4.40;;;9.90;99.90;;;;;;5040252;28;20017;-68
2023/01/13 01:46:39;;;;;;;21.50;3.75;;;9.90;99.90;;;;;;5043156;28;20037;-68
2023/01/13 01:49:08;;;;;;;20.83;4.22;;;9.90;99.90;;;;;;5041010;28;20032;-68
2023/01/13 01:51:42;;;;;;;27.23;5.80;;;9.80;99.90;;;;;;5037807;28;20021;-68
2023/01/13 01:54:12;;;;;;;28.48;4.25;;;9.80;99.90;;;;;;5043190;28;20060;-68
2023/01/13 01:56:40;;;;;;;25.65;4.43;;;9.70;99.90;;;;;;5039848;28;20105;-68
2023/01/13 01:59:05;;;;;;;24.05;4.47;;;9.70;99.90;;;;;;5044912;28;20025;-68
2023/01/13 02:01:32;;;;;;;25.52;4.45;;;9.80;99.90;;;;;;5049301;28;20036;-68
2023/01/13 02:04:03;;;;;;;29.15;4.38;;;9.80;99.90;;;;;;5038790;28;20049;-68
2023/01/13 02:06:29;;;;;;;23.88;4.60;;;9.70;99.90;;;;;;5053636;28;20031;-68
2023/01/13 02:08:56;;;;;;;24.77;4.18;;;9.70;99.90;;;;;;5053796;28;20025;-68
2023/01/13 02:14:23;;;;;;;30.40;4.55;;;9.60;99.90;;;;;;5055103;28;20028;-68
2023/01/13 02:17:22;;;;;;;30.45;5.28;;;9.60;99.90;;;;;;5055972;28;20108;-68
2023/01/13 02:20:12;;;;;;;22.77;4.32;;;9.70;99.90;;;;;;5047479;28;20052;-68
2023/01/13 02:23:00;;;;;;;18.30;3.58;;;9.70;99.90;;;;;;5050466;28;20023;-68
2023/01/13 02:25:47;;;;;;;22.45;3.40;;;9.70;99.90;;;;;;5056941;28;20076;-68
2023/01/13 02:28:30;;;;;;;32.00;3.90;;;9.70;99.90;;;;;;5055860;28;20054;-68
2023/01/13 02:34:06;;;;;;;28.10;4.20;;;9.70;99.90;;;;;;5053737;28;20036;-68
2023/01/13 02:36:55;;;;;;;23.45;3.85;;;9.70;99.90;;;;;;5053330;28;20044;-68
2023/01/13 02:39:32;;;;;;;17.42;3.20;;;9.60;99.90;;;;;;5052583;28;20048;-68
2023/01/13 02:44:54;;;;;;;26.13;4.22;;;9.60;99.90;;;;;;5052585;28;20037;-68
2023/01/13 02:47:24;;;;;;;27.80;5.15;;;9.60;99.90;;;;;;5057985;28;20032;-68
2023/01/13 02:49:54;;;;;;;24.20;3.80;;;9.70;99.90;;;;;;5048386;28;20108;-67
2023/01/13 02:52:38;;;;;;;22.05;3.80;;;9.60;99.90;;;;;;5052574;28;20074;-69
2023/01/13 02:55:10;;;;;;;24.45;4.10;;;9.70;99.90;;;;;;5051607;28;20106;-68
2023/01/13 02:57:38;;;;;;;27.80;4.30;;;9.60;99.90;;;;;;5052855;28;20029;-68
2023/01/13 03:00:06;;;;;;;23.48;3.83;;;9.70;99.90;;;;;;5053702;28;20021;-67
2023/01/13 03:02:32;;;;;;;23.45;3.20;;;9.80;99.90;;;;;;5052893;28;20020;-68
2023/01/13 03:04:59;;;;;;;23.10;3.75;;;9.80;99.90;;;;;;5049478;28;20071;-68
2023/01/13 03:07:52;;;;;;;17.38;3.72;;;9.80;99.90;;;;;;5057023;28;20052;-68
2023/01/13 03:10:56;;;;;;;24.63;3.38;;;9.80;99.90;;;;;;5053314;28;20021;-68
2023/01/13 03:13:34;;;;;;;20.20;3.47;;;9.70;99.90;;;;;;5048789;28;20040;-68
2023/01/13 03:16:08;;;;;;;21.83;3.10;;;9.80;99.90;;;;;;5057317;28;20384;-68
2023/01/13 03:18:51;;;;;;;18.65;3.83;;;9.90;99.90;;;;;;5056124;28;20469;-68
2023/01/13 03:21:23;;;;;;;;;;;9.80;99.90;;;;;;5066449;28;20024;-68
2023/01/13 03:24:41;;;;;;;15.20;2.92;;;9.80;99.90;;;;;;5057437;28;19904;-68
2023/01/13 03:27:19;;;;;;;22.42;4.30;;;9.70;99.90;;;;;;5052114;28;20028;-68
2023/01/13 03:30:06;;;;;;;14.82;2.83;;;9.80;99.90;;;;;;5048441;28;20021;-68
2023/01/13 03:32:43;;;;;;;15.80;3.15;;;9.80;99.90;;;;;;5058173;28;20029;-68
2023/01/13 03:35:15;;;;;;;19.15;2.97;;;9.80;99.90;;;;;;5048325;28;20025;-68
2023/01/13 03:37:46;;;;;;;19.33;3.85;;;9.80;99.90;;;;;;5058884;28;20376;-67
2023/01/13 03:40:21;;;;;;;22.27;3.15;;;9.70;99.90;;;;;;5055791;28;20041;-66
2023/01/13 03:45:39;;;;;;;18.20;3.28;;;9.60;99.90;;;;;;5050001;28;20110;-67
2023/01/13 03:48:15;;;;;;;15.63;3.40;;;9.70;99.90;;;;;;5061015;28;20100;-66
2023/01/13 03:50:47;;;;;;;20.77;2.80;;;9.80;99.90;;;;;;5054177;28;20357;-67
2023/01/13 03:53:19;;;;;;;19.25;3.00;;;9.70;99.90;;;;;;5060164;28;20017;-69
2023/01/13 03:55:50;;;;;;;15.95;3.08;;;9.70;99.90;;;;;;5059323;28;20032;-67
2023/01/13 03:58:28;;;;;;;17.83;3.60;;;9.70;99.90;;;;;;5053254;28;20022;-67
2023/01/13 04:01:14;;;;;;;27.10;3.00;;;9.70;99.90;;;;;;5051878;28;20119;-67
2023/01/13 04:03:46;;;;;;;19.30;3.28;;;9.70;99.90;;;;;;5047429;28;20055;-67
2023/01/13 04:06:17;;;;;;;17.83;3.45;;;9.70;99.90;;;;;;5059250;28;20025;-67
2023/01/13 04:08:56;;;;;;;23.73;3.80;;;9.80;99.90;;;;;;5055725;28;20392;-67
2023/01/13 04:11:33;;;;;;;17.95;3.20;;;9.80;99.90;;;;;;5054260;28;20311;-67
2023/01/13 04:14:02;;;;;;;24.02;4.30;;;9.80;99.90;;;;;;5056193;28;20017;-67
2023/01/13 04:16:28;;;;;;;18.13;3.13;;;9.80;99.90;;;;;;5047215;28;20040;-67
2023/01/13 04:18:54;;;;;;;20.38;3.67;;;9.80;99.90;;;;;;5063176;28;20109;-67
2023/01/13 04:21:19;;;;;;;28.50;3.75;;;9.80;99.90;;;;;;5062348;28;20021;-68
2023/01/13 04:23:45;;;;;;;26.05;3.60;;;9.80;99.90;;;;;;5051218;28;20070;-69
2023/01/13 04:26:11;;;;;;;22.05;3.70;;;9.80;99.90;;;;;;5055242;28;20026;-67
2023/01/13 04:28:36;;;;;;;21.80;3.55;;;9.80;99.90;;;;;;5057486;28;20025;-70
2023/01/13 04:31:02;;;;;;;21.83;3.47;;;9.70;99.90;;;;;;5058120;28;20029;-68
2023/01/13 04:33:27;;;;;;;31.30;4.55;;;9.80;99.90;;;;;;5055110;28;20025;-68
2023/01/13 04:35:54;;;;;;;19.85;3.35;;;9.80;99.90;;;;;;5062569;28;20036;-68
2023/01/13 04:38:20;;;;;;;27.88;3.10;;;9.70;99.90;;;;;;5052400;28;20013;-68
2023/01/13 04:40:47;;;;;;;23.50;4.78;;;9.80;99.90;;;;;;5054787;28;20031;-68
2023/01/13 04:43:14;;;;;;;28.70;3.83;;;9.70;99.90;;;;;;5053325;28;20017;-68
2023/01/13 04:45:40;;;;;;;15.90;3.20;;;9.80;99.90;;;;;;5052086;28;20111;-69
2023/01/13 04:48:06;;;;;;;27.10;4.07;;;9.70;99.90;;;;;;5052607;28;20139;-68
2023/01/13 04:50:31;;;;;;;23.95;3.45;;;9.60;99.90;;;;;;5053307;28;20173;-68
2023/01/13 04:52:59;;;;;;;25.13;3.22;;;9.60;99.90;;;;;;5049043;28;20036;-68
2023/01/13 04:55:24;;;;;;;20.42;3.72;;;9.50;99.90;;;;;;5047416;28;20074;-69
2023/01/13 04:57:50;;;;;;;17.08;3.58;;;9.50;99.90;;;;;;5055693;28;20108;-68
2023/01/13 05:00:20;;;;;;;15.63;3.17;;;9.40;99.90;;;;;;5058396;28;20021;-68
2023/01/13 05:02:45;;;;;;;17.15;2.75;;;9.40;99.90;;;;;;5062608;28;20036;-69
2023/01/13 05:05:11;;;;;;;20.27;3.50;;;9.40;99.90;;;;;;5061065;28;20017;-82
2023/01/13 05:07:37;;;;;;;15.85;2.78;;;9.30;99.90;;;;;;5059891;28;20110;-80
2023/01/13 05:10:03;;;;;;;10.90;2.38;;;9.40;99.90;;;;;;5057297;28;20039;-68
2023/01/13 05:17:59;;;;;;;10.65;3.03;;;9.40;99.90;;;;;;5060160;28;20446;-71
2023/01/13 05:20:25;;;;;;;11.32;2.22;;;9.30;99.90;;;;;;5052101;28;20017;-75
2023/01/13 05:25:39;;;;;;;11.20;2.00;;;9.30;99.90;;;;;;5067546;28;20435;-77
2023/01/13 05:28:05;;;;;;;20.27;2.65;;;9.30;99.90;;;;;;5061986;28;20056;-75
2023/01/13 05:30:37;;;;;;;11.40;1.88;;;9.20;99.90;;;;;;5057616;28;20063;-75
2023/01/13 05:33:03;;;;;;;;;;;9.30;99.90;;;;;;5060706;28;20033;-75
2023/01/13 05:35:29;;;;;;;10.82;2.00;;;9.20;99.90;;;;;;5059918;28;20038;-75
2023/01/13 05:37:55;;;;;;;14.05;1.95;;;9.20;99.90;;;;;;5056562;28;20533;-75
2023/01/13 05:43:20;;;;;;;15.02;2.22;;;9.10;99.90;;;;;;5054597;28;20040;-76
2023/01/13 05:45:46;;;;;;;5.32;1.83;;;9.10;99.90;;;;;;5053752;28;20088;-76
2023/01/13 05:48:12;;;;;;;17.67;2.97;;;9.10;99.90;;;;;;5058548;28;20104;-68
2023/01/13 05:50:38;;;;;;;10.20;2.15;;;9.10;99.90;;;;;;5062091;28;20120;-73
2023/01/13 05:53:04;;;;;;;13.20;2.95;;;9.00;99.90;;;;;;5065673;28;20025;-77
2023/01/13 05:55:30;;;;;;;14.18;2.70;;;9.10;99.90;;;;;;5058219;28;20032;-77
2023/01/13 05:57:56;;;;;;;11.80;2.03;;;9.00;99.90;;;;;;5055515;28;20489;-75
2023/01/13 06:00:21;;;;;;;10.95;2.30;;;9.10;99.90;;;;;;5048825;28;20057;-70
2023/01/13 06:02:48;;;;;;;12.27;2.50;;;9.10;99.90;;;;;;5057074;28;20031;-68
2023/01/13 06:05:13;;;;;;;14.98;2.08;;;9.10;99.90;;;;;;5063159;28;20067;-75
2023/01/13 06:07:39;;;;;;;14.75;2.45;;;9.10;99.90;;;;;;5060723;28;20454;-69
2023/01/13 06:10:05;;;;;;;15.88;2.63;;;9.10;99.90;;;;;;5057735;28;20029;-70
2023/01/13 06:12:32;;;;;;;17.65;2.97;;;9.10;99.90;;;;;;5061954;28;20032;-69
2023/01/13 06:14:57;;;;;;;16.08;2.83;;;9.10;99.90;;;;;;5058430;28;20289;-70
2023/01/13 06:17:23;;;;;;;12.20;2.25;;;9.10;99.90;;;;;;5057507;28;20045;-73
2023/01/13 06:19:49;;;;;;;12.98;2.38;;;9.10;99.90;;;;;;5061872;28;20549;-70
2023/01/13 06:22:20;;;;;;;14.10;2.95;;;9.10;99.90;;;;;;5066516;28;20067;-71
2023/01/13 06:24:47;;;;;;;14.35;2.85;;;9.10;99.90;;;;;;5063570;28;20063;-68
2023/01/13 06:27:14;;;;;;;16.15;3.97;;;9.10;99.90;;;;;;5055994;28;20021;-68
2023/01/13 06:29:40;;;;;;;12.32;2.20;;;9.00;99.90;;;;;;5061766;28;20020;-71
2023/01/13 06:32:12;;;;;;;13.38;2.22;;;9.00;99.90;;;;;;5060928;28;20037;-69
2023/01/13 06:34:40;;;;;;;15.27;2.45;;;9.00;99.90;;;;;;5056475;28;20035;-73
2023/01/13 06:37:05;;;;;;;14.23;2.97;;;8.90;99.90;;;;;;5055851;28;20529;-72
2023/01/13 06:39:34;;;;;;;16.08;2.40;;;9.00;99.90;;;;;;5064503;28;20024;-70
2023/01/13 06:44:46;;;;;;;10.55;2.38;;;8.90;99.90;;;;;;5054482;28;20543;-72
2023/01/13 06:47:11;;;;;;;13.02;2.22;;;8.90;99.90;;;;;;5058462;28;20099;-71
2023/01/13 06:49:37;;;;;;;16.05;2.40;;;8.90;99.90;;;;;;5051659;28;20021;-72
2023/01/13 06:52:03;;;;;;;11.25;2.15;;;8.90;99.90;;;;;;5056348;28;20051;-72
2023/01/13 06:54:28;;;;;;;14.60;2.50;;;9.00;99.90;;;;;;5060972;28;20029;-72
2023/01/13 06:56:54;;;;;;;15.80;2.60;;;8.80;99.90;;;;;;5057224;28;20102;-71
2023/01/13 06:59:19;;;;;;;13.95;2.55;;;8.80;99.90;;;;;;5059772;28;20120;-71
2023/01/13 07:01:45;;;;;;;14.02;2.88;;;8.80;99.90;;;;;;5052525;28;20356;-70
2023/01/13 07:04:10;;;;;;;17.80;2.50;;;8.80;99.90;;;;;;5057251;28;20025;-72
2023/01/13 07:06:36;;;;;;;13.15;3.17;;;8.90;99.90;;;;;;5053012;28;20420;-73
2023/01/13 07:09:02;;;;;;;15.63;2.90;;;8.80;99.90;;;;;;5065892;28;20032;-69
2023/01/13 07:11:27;;;;;;;15.90;3.00;;;8.80;99.90;;;;;;5065392;28;20017;-73
2023/01/13 07:16:37;;;;;;;21.80;3.67;;;8.90;99.90;;;;;;5052329;28;20044;-69
2023/01/13 07:19:02;;;;;;;14.85;3.20;;;8.80;99.90;;;;;;5055602;28;20021;-69
2023/01/13 07:21:28;;;;;;;21.25;2.83;;;8.80;99.90;;;;;;5062247;28;20379;-68
2023/01/13 07:23:54;;;;;;;17.38;3.35;;;8.90;99.90;;;;;;5060300;28;20078;-71
2023/01/13 07:26:20;;;;;;;17.83;3.90;;;8.90;99.90;;;;;;5062440;28;20071;-74
2023/01/13 07:28:45;;;;;;;21.60;3.38;;;8.80;99.90;;;;;;5060704;28;20115;-70
2023/01/13 07:31:22;;;;;;;20.10;3.03;;;8.80;99.90;;;;;;5055180;28;20504;-70
2023/01/13 07:33:48;;;;;;;21.73;3.13;;;8.80;99.90;;;;;;5050272;28;20048;-69
2023/01/13 07:36:14;;;;;;;25.83;3.10;;;8.80;99.90;;;;;;5057528;28;20500;-72
2023/01/13 07:38:40;;;;;;;17.27;3.47;;;8.80;99.90;;;;;;5048773;28;20024;-71
2023/01/13 07:43:51;;;;;;;20.80;3.78;;;8.80;99.90;;;;;;5053267;28;20048;-70
2023/01/13 07:46:17;;;;;;;22.05;3.65;;;8.80;99.90;;;;;;5054885;28;20032;-70
2023/01/13 07:48:43;;;;;;;18.33;3.40;;;8.80;99.90;;;;;;5053388;28;20025;-70
2023/01/13 07:51:10;;;;;;;18.10;3.40;;;8.70;99.90;;;;;;5054084;28;20030;-70
2023/01/13 07:53:38;;;;;;;21.75;3.25;;;8.80;99.90;;;;;;5052857;28;20559;-72
2023/01/13 07:56:05;;;;;;;20.45;3.97;;;8.80;99.90;;;;;;5054391;28;20037;-72
2023/01/13 07:58:33;;;;;;;24.08;3.33;;;8.80;99.90;;;;;;5053171;28;20028;-74
2023/01/13 08:00:58;;;;;;;20.60;3.45;;;8.80;99.90;;;;;;5045915;28;20040;-71
2023/01/13 08:03:25;;;;;;;22.92;3.92;;;8.80;99.90;;;;;;5057761;28;20074;-70
2023/01/13 08:05:51;;;;;;;21.25;3.63;;;8.80;99.90;;;;;;5053991;28;20500;-72
2023/01/13 08:08:17;;;;;;;14.88;3.35;;;8.80;99.90;;;;;;5054345;28;20048;-73
2023/01/13 08:10:43;;;;;;;23.30;4.13;;;8.80;99.90;;;;;;5049616;28;20013;-73
2023/01/13 08:13:21;;;;;;;25.17;4.15;;;8.80;99.90;;;;;;5053011;28;20049;-69
2023/01/13 08:15:49;;;;;;;28.42;4.05;;;8.90;99.90;;;;;;5051054;28;20085;-72
2023/01/13 08:18:16;;;;;;;27.95;4.20;;;9.00;99.90;;;;;;5051820;28;20041;-72
2023/01/13 08:20:42;;;;;;;17.33;3.35;;;9.10;99.90;;;;;;5060120;28;20095;-70
2023/01/13 08:23:08;;;;;;;21.70;3.78;;;9.20;99.90;;;;;;5059860;28;20058;-74
2023/01/13 08:25:33;;;;;;;23.90;4.30;;;9.20;99.90;;;;;;5056210;28;20025;-74
2023/01/13 08:27:59;;;;;;;22.55;4.13;;;9.10;99.90;;;;;;5052512;28;20067;-73
2023/01/13 08:30:26;;;;;;;31.05;4.22;;;9.20;99.90;;;;;;5048251;28;20466;-74
2023/01/13 08:32:52;;;;;;;29.45;4.20;;;9.20;99.90;;;;;;5055611;28;20044;-73
2023/01/13 08:35:18;;;;;;;28.15;3.88;;;9.30;99.90;;;;;;5055205;28;20106;-73
2023/01/13 08:37:45;;;;;;;20.80;4.07;;;9.30;99.90;;;;;;5053870;28;20044;-74
2023/01/13 08:40:13;;;;;;;19.38;3.85;;;9.30;99.90;;;;;;5055877;28;20017;-73
2023/01/13 08:42:38;;;;;;;30.95;4.93;;;9.30;99.90;;;;;;5059847;28;20023;-72
2023/01/13 08:45:05;;;;;;;21.80;4.13;;;9.20;99.90;;;;;;5059157;28;20021;-74
2023/01/13 08:47:31;;;;;;;26.35;4.15;;;9.30;99.90;;;;;;5050132;28;20041;-75
2023/01/13 08:49:56;;;;;;;19.15;4.18;;;9.30;99.90;;;;;;5057813;28;20100;-74
2023/01/13 08:52:22;;;;;;;21.98;3.97;;;9.40;99.90;;;;;;5060305;28;20633;-74
2023/01/13 08:54:48;;;;;;;19.98;4.03;;;9.50;99.90;;;;;;5055208;28;20044;-74
2023/01/13 08:57:14;;;;;;;34.30;3.97;;;9.40;99.90;;;;;;5056289;28;20017;-74
2023/01/13 08:59:42;;;;;;;32.38;5.10;;;9.40;99.90;;;;;;5054761;28;20099;-70
2023/01/13 09:02:21;;;;;;;22.83;4.13;;;9.30;99.90;;;;;;5058479;28;20604;-75
2023/01/13 09:04:47;;;;;;;24.38;4.65;;;9.40;99.90;;;;;;5056755;28;20070;-70
2023/01/13 09:07:13;;;;;;;32.13;5.35;;;9.40;99.90;;;;;;5061033;28;20489;-70
2023/01/13 09:09:39;;;;;;;36.45;5.00;;;9.40;99.90;;;;;;5058622;28;20017;-78
2023/01/13 09:14:50;;;;;;;21.88;4.72;;;9.50;99.90;;;;;;5053917;28;20465;-79
2023/01/13 09:17:16;;;;;;;20.50;4.05;;;9.50;99.90;;;;;;5061101;28;20032;-79
2023/01/13 09:19:41;;;;;;;23.17;4.78;;;9.50;99.90;;;;;;5061708;28;20016;-77
2023/01/13 09:22:12;;;;;;;29.23;4.78;;;9.60;99.90;;;;;;5057266;28;20035;-78
2023/01/13 09:24:38;;;;;;;21.20;4.00;;;9.70;99.90;;;;;;5057876;28;20021;-79
2023/01/13 09:27:04;;;;;;;27.35;4.90;;;9.70;99.90;;;;;;5061362;28;20028;-77
2023/01/13 09:29:29;;;;;;;26.63;4.50;;;9.70;99.90;;;;;;5052213;28;20096;-77
2023/01/13 09:31:56;;;;;;;29.48;4.45;;;9.90;99.90;;;;;;5059240;28;20033;-75
2023/01/13 09:37:07;;;;;;;23.10;3.90;;;9.90;99.90;;;;;;5057892;28;20051;-75
2023/01/13 09:39:34;;;;;;;25.15;4.32;;;9.90;99.90;;;;;;5051685;28;20566;-74
2023/01/13 09:45:22;;;;;;;34.40;4.85;;;10.00;99.90;;;;;;5038813;28;20036;-73
2023/01/13 09:47:52;;;;;;;27.60;4.78;;;10.00;99.90;;;;;;5040160;28;20047;-76
2023/01/13 09:50:21;;;;;;;25.95;3.88;;;10.10;99.90;;;;;;5041552;28;20457;-74
2023/01/13 09:52:46;;;;;;;23.25;4.28;;;10.10;99.90;;;;;;5039247;28;20470;-75
2023/01/13 09:55:21;;;;;;;26.92;4.18;;;10.10;99.90;;;;;;5040673;28;20059;-68
2023/01/13 09:57:47;;;;;;;26.17;3.78;;;10.20;99.90;;;;;;5041284;28;20070;-68
2023/01/13 10:00:21;;;;;;;28.60;4.70;;;10.20;99.90;;;;;;5044978;28;20029;-69
2023/01/13 10:03:01;;;;;;;27.60;4.72;;;10.30;99.90;;;;;;5041992;28;20032;-68
2023/01/13 10:05:37;;;;;;;18.10;3.47;;;10.30;99.90;;;;;;5039883;28;20074;-75
2023/01/13 10:08:43;;;;;;;20.80;4.20;;;10.30;99.90;;;;;;5041003;28;20455;-69
2023/01/13 10:14:21;;;;;;;23.55;5.30;;;10.30;99.90;;;;;;5041278;28;20536;-69
2023/01/13 10:16:46;;;;;;;21.38;4.13;;;10.20;99.90;;;;;;5036671;28;20033;-68
2023/01/13 10:19:47;;;;;;;23.45;4.03;;;10.20;99.90;;;;;;5041665;28;20462;-70
2023/01/13 10:22:59;;;;;;;20.73;3.83;;;10.20;99.90;;;;;;5044746;28;20036;-69
2023/01/13 10:25:54;;;;;;;22.55;4.97;;;10.30;99.90;;;;;;5034404;28;20525;-69
2023/01/13 10:28:22;;;;;;;28.45;5.15;;;10.20;99.90;;;;;;5039773;28;20036;-71
2023/01/13 10:30:48;;;;;;;22.35;6.18;;;10.20;99.90;;;;;;5038085;28;20029;-76
2023/01/13 10:33:27;;;;;;;31.55;4.32;;;10.20;99.90;;;;;;5043472;28;20511;-73
2023/01/13 10:36:14;;;;;;;22.92;4.00;;;10.20;99.90;;;;;;5036451;28;20029;-75
2023/01/13 10:38:45;;;;;;;18.77;4.32;;;10.20;99.90;;;;;;5039575;28;20535;-74
2023/01/13 10:41:22;;;;;;;22.17;4.13;;;10.20;99.90;;;;;;5041837;28;20544;-75
2023/01/13 10:44:17;;;;;;;24.38;4.50;;;10.30;99.90;;;;;;5041566;28;20026;-71
2023/01/13 10:46:52;;;;;;;25.95;4.30;;;10.30;99.90;;;;;;5033483;28;20068;-72
2023/01/13 10:49:40;;;;;;;26.40;4.28;;;10.40;99.90;;;;;;5040938;28;20163;-72
2023/01/13 10:52:25;;;;;;;26.90;4.13;;;10.30;99.90;;;;;;5039585;28;20146;-72
2023/01/13 10:54:54;;;;;;;26.65;4.60;;;10.30;99.90;;;;;;5040624;28;20508;-71
2023/01/13 10:57:22;;;;;;;28.73;4.40;;;10.40;99.90;;;;;;5023357;28;20079;-72
2023/01/13 10:59:49;;;;;;;27.63;5.13;;;10.40;99.90;;;;;;5048494;28;20017;-72
2023/01/13 11:02:23;;;;;;;22.75;4.20;;;10.40;99.90;;;;;;5041587;28;20127;-72
2023/01/13 11:04:54;;;;;;;24.05;4.95;;;10.40;99.90;;;;;;5042703;28;20473;-72
2023/01/13 11:07:32;;;;;;;23.67;4.43;;;10.40;99.90;;;;;;5037080;28;20092;-72
2023/01/13 11:10:15;;;;;;;25.38;4.90;;;10.40;99.90;;;;;;5039202;28;20821;-72
2023/01/13 11:12:56;;;;;;;;;;;10.40;99.90;;;;;;5039605;28;20025;-72
2023/01/13 11:15:34;;;;;;;19.52;4.30;;;10.40;99.90;;;;;;5037974;28;19960;-72
2023/01/13 11:18:09;;;;;;;33.40;6.20;;;10.30;99.90;;;;;;5039800;28;20523;-71
2023/01/13 11:20:41;;;;;;;31.58;4.45;;;10.30;99.90;;;;;;5041319;28;20025;-72
2023/01/13 11:23:33;;;;;;;17.55;3.88;;;10.30;99.90;;;;;;5041034;28;20024;-72
2023/01/13 11:26:15;;;;;;;29.10;4.78;;;10.30;99.90;;;;;;5040990;28;20021;-72
2023/01/13 11:28:50;;;;;;;33.63;5.18;;;10.20;99.90;;;;;;5039948;28;20393;-72
2023/01/13 11:31:25;;;;;;;26.73;5.60;;;10.20;99.90;;;;;;5037146;28;20081;-71
2023/01/13 11:34:11;;;;;;;17.90;4.22;;;10.10;99.90;;;;;;5036927;28;20068;-76
2023/01/13 11:36:49;;;;;;;27.05;4.63;;;10.10;99.90;;;;;;5039793;28;20086;-76
2023/01/13 11:39:39;;;;;;;28.80;4.93;;;10.10;99.90;;;;;;5040377;28;20118;-76
2023/01/13 11:42:45;;;;;;;27.13;5.13;;;10.00;99.90;;;;;;5039419;28;20478;-76
2023/01/13 11:45:46;;;;;;;20.10;4.10;;;9.90;99.90;;;;;;5040807;28;20021;-76
2023/01/13 11:48:14;;;;;;;22.40;4.03;;;10.00;99.90;;;;;;5036105;28;20063;-71
2023/01/13 11:50:54;;;;;;;27.92;4.82;;;10.10;99.90;;;;;;5038310;28;20036;-71
2023/01/13 11:53:40;;;;;;;26.33;5.05;;;10.00;99.90;;;;;;5038282;28;20029;-71
2023/01/13 11:56:23;;;;;;;23.58;4.30;;;10.10;99.90;;;;;;5039645;28;20036;-70
2023/01/13 11:59:09;;;;;;;19.73;4.50;;;10.00;99.90;;;;;;5038380;28;20532;-71
2023/01/13 12:01:56;;;;;;;28.40;5.60;;;10.10;99.90;;;;;;5040062;28;20045;-71
2023/01/13 12:04:22;;;;;;;25.75;4.88;;;10.10;99.90;;;;;;5041817;28;20531;-71
2023/01/13 12:06:58;;;;;;;24.60;5.25;;;10.10;99.90;;;;;;5040138;28;20108;-72
2023/01/13 12:09:53;;;;;;;25.30;4.15;;;10.10;99.90;;;;;;5037595;28;20013;-71
2023/01/13 12:12:47;;;;;;;26.15;4.57;;;10.10;99.90;;;;;;5035859;28;20041;-71
2023/01/13 12:15:22;;;;;;;21.10;4.55;;;10.00;99.90;;;;;;5039622;28;20037;-71
2023/01/13 12:17:59;;;;;;;21.95;4.68;;;10.10;99.90;;;;;;5039243;28;20055;-72
2023/01/13 12:20:57;;;;;;;24.95;4.25;;;10.10;99.90;;;;;;5043001;28;20032;-72
2023/01/13 12:24:01;;;;;;;21.83;4.32;;;10.20;99.90;;;;;;5038005;28;20060;-72
2023/01/13 12:26:31;;;;;;;23.75;4.20;;;10.20;99.90;;;;;;5032864;28;20032;-73
2023/01/13 12:29:06;;;;;;;20.88;4.22;;;10.30;99.90;;;;;;5038225;28;20107;-73
2023/01/13 12:31:36;;;;;;;20.90;4.25;;;10.20;99.90;;;;;;5037939;28;20052;-73
2023/01/13 12:34:11;;;;;;;17.48;3.83;;;10.20;99.90;;;;;;5038727;28;20025;-74
2023/01/13 12:36:57;;;;;;;22.08;4.10;;;10.30;99.90;;;;;;5040252;28;20037;-73
2023/01/13 12:39:39;;;;;;;26.52;4.65;;;10.30;99.90;;;;;;5041100;28;20029;-73
2023/01/13 12:45:10;;;;;;;19.48;3.50;;;10.30;99.90;;;;;;5035519;28;20044;-72
2023/01/13 12:47:47;;;;;;;19.55;3.70;;;10.30;99.90;;;;;;5036202;28;20030;-73
2023/01/13 12:50:22;;;;;;;24.25;5.35;;;10.30;99.90;;;;;;5037106;28;20104;-73
2023/01/13 12:52:56;;;;;;;19.42;3.92;;;10.30;99.90;;;;;;5038442;28;20028;-73
2023/01/13 12:55:32;;;;;;;21.67;3.90;;;10.30;99.90;;;;;;5038555;28;20149;-74
2023/01/13 12:58:07;;;;;;;17.08;3.42;;;10.30;99.90;;;;;;5038362;28;20105;-74
2023/01/13 13:00:38;;;;;;;15.30;3.17;;;10.30;99.90;;;;;;5038231;28;20075;-74
2023/01/13 13:03:04;;;;;;;18.55;4.03;;;10.30;99.90;;;;;;5037462;28;20115;-73
2023/01/13 13:05:53;;;;;;;21.23;3.95;;;10.40;99.90;;;;;;5034699;28;20584;-72
2023/01/13 13:08:38;;;;;;;16.73;3.60;;;10.50;99.90;;;;;;5037579;28;20096;-72
2023/01/13 13:13:16;;;;;;;16.00;3.50;;;10.40;99.90;;;;;;5039777;28;20086;-73
2023/01/13 13:14:00;;;;;;;16.73;4.15;;;10.50;99.90;;;;;;5037745;28;20051;-73
2023/01/13 13:16:25;;;;;;;19.95;3.97;;;10.40;99.90;;;;;;5040220;28;20052;-72
2023/01/13 13:19:17;;;;;;;14.95;3.35;;;10.40;99.90;;;;;;5039172;28;20063;-75
2023/01/13 13:22:11;;;;;;;21.17;4.95;;;10.40;99.90;;;;;;5037356;28;20033;-74
2023/01/13 13:25:01;;;;;;;23.42;4.03;;;10.40;99.90;;;;;;5038614;28;20501;-72
2023/01/13 13:27:33;;;;;;;16.38;3.60;;;10.40;99.90;;;;;;5043471;28;20478;-75
2023/01/13 13:30:32;;;;;;;13.23;3.63;;;10.40;99.90;;;;;;5040078;28;20071;-74
2023/01/13 13:32:58;;;;;;;22.05;4.10;;;10.30;99.90;;;;;;5057120;28;20037;-73
2023/01/13 13:35:26;;;;;;;22.15;4.65;;;10.30;99.90;;;;;;5040810;28;20056;-72
2023/01/13 13:46:47;;;;;;;22.73;4.43;;;10.30;99.90;;;;;;5042160;28;20040;-74
2023/01/13 13:49:32;;;;;;;14.63;3.35;;;10.30;99.90;;;;;;5040386;28;20497;-78
2023/01/13 13:52:06;;;;;;;17.33;3.85;;;10.20;99.90;;;;;;5038198;28;20033;-73
2023/01/13 13:54:31;;;;;;;15.82;2.92;;;10.20;99.90;;;;;;5039659;28;20029;-74
2023/01/13 13:56:58;;;;;;;18.30;4.43;;;10.30;99.90;;;;;;5041126;28;20045;-72
2023/01/13 13:59:26;;;;;;;14.40;3.50;;;10.20;99.90;;;;;;5041873;28;20572;-74
2023/01/13 14:02:02;;;;;;;15.90;3.50;;;10.20;99.90;;;;;;5039923;28;20113;-73
2023/01/13 14:04:35;;;;;;;18.38;4.00;;;10.30;99.90;;;;;;5037924;28;20112;-70